KGRK/GRK METAR and TAF weather

Enter ICAO airport designator
Station Type Date Time Source
KGRK METAR 2020/01/24 20:58 UTC NOAA

KGRK 242058Z 07001KT 7SM CLR 20/01 A3010 RMK AO2A SLPNO WND DATA ESTMD ALSTG ESTMD


Station Type Date Time Source
KGRK Decoded METAR 2020/01/24 20:58 UTC NOAA

Fort Hood, Robert Gray AAF Ft Hood, TX, United States (KGRK) 31-04N 097-49W
Jan 24, 2020 - 03:58 PM EST / 2020.01.24 2058 UTC
Wind: from the ENE (070 degrees) at 1 MPH (1 KT):0
Visibility: 7 mile(s):0
Sky conditions: clear
Temperature: 68 F (20 C)
Dew Point: 33 F (1 C)
Relative Humidity: 28%
Pressure (altimeter): 30.1 in. Hg (1019 hPa)
ob: KGRK 242058Z 07001KT 7SM CLR 20/01 A3010 RMK AO2A SLPNO WND DATA ESTMD ALSTG ESTMD
cycle: 21

Station Type Date Time Source
KGRK TAF 2020/01/24 16:06 UTC NOAA

TAF KGRK 241600Z 2416/2522 35009KT 9999 SKC QNH3010INS
BECMG 2422/2423 16006KT 9999 SKC QNH3009INS
BECMG 2515/2516 19012KT 9999 SCT030 QNH3010INS TX17/2421Z TN06/2512Z

Example: see airport list